Time;durP1;ratioP1;P1;durP2;ratioP2;P2;SDS_P1;SDS_P2;PMS_P1;PMS_P2;Temp;Humidity;BMP_temperature;BMP_pressure;BME280_temperature;BME280_humidity;BME280_pressure;Samples;Min_cycle;Max_cycle;Signal;HPM_P1;HPM_P2
2022/10/04 00:13:33;;;;;;;8.73;2.60;;;15.70;99.90;;;;;;1944385;72;22146;-90
2022/10/04 00:16:29;;;;;;;5.92;2.70;;;15.80;99.90;;;;;;1904861;75;21086;-92
2022/10/04 00:19:41;;;;;;;4.65;2.62;;;15.80;99.90;;;;;;1910974;75;21587;-90
2022/10/04 00:22:33;;;;;;;3.22;2.42;;;15.80;99.90;;;;;;1892383;75;21057;-89
2022/10/04 00:28:54;;;;;;;5.55;2.20;;;15.80;99.90;;;;;;2043465;69;22327;-90
2022/10/04 00:32:21;;;;;;;4.10;2.40;;;15.80;99.90;;;;;;1975593;72;21171;-90
2022/10/04 00:35:51;;;;;;;2.77;2.00;;;15.80;99.90;;;;;;1963902;72;21141;-92
2022/10/04 00:38:43;;;;;;;3.92;2.55;;;15.80;99.90;;;;;;1958385;72;21065;-91
2022/10/04 00:41:39;;;;;;;5.85;2.77;;;15.80;99.90;;;;;;1977008;72;21146;-91
2022/10/04 00:44:36;;;;;;;6.83;2.92;;;15.80;99.90;;;;;;1966052;72;21131;-90
2022/10/04 00:47:31;;;;;;;8.15;2.72;;;15.90;99.90;;;;;;1983466;72;21474;-90
2022/10/04 00:53:21;;;;;;;4.62;3.20;;;15.90;99.90;;;;;;1956533;72;22286;-89
2022/10/04 00:56:16;;;;;;;4.92;3.12;;;15.90;99.90;;;;;;1919371;73;21103;-89
2022/10/04 00:59:32;;;;;;;4.72;3.12;;;15.90;99.90;;;;;;1937394;73;21143;-90
2022/10/04 01:02:26;;;;;;;7.15;3.20;;;15.90;99.90;;;;;;1917803;75;21106;-90
2022/10/04 01:21:31;;;;;;;5.90;4.47;;;15.80;99.90;;;;;;1946085;72;22181;-90
2022/10/04 01:24:23;;;;;;;6.33;5.67;;;15.90;99.90;;;;;;1905694;75;21133;-90
2022/10/04 01:27:38;;;;;;;7.55;6.50;;;15.90;99.90;;;;;;1919658;74;21091;-90
2022/10/04 01:30:30;;;;;;;6.85;5.75;;;15.90;99.90;;;;;;1910337;74;21113;-90
2022/10/04 01:36:13;;;;;;;7.65;4.83;;;15.80;99.90;;;;;;1930963;72;22137;-89
2022/10/04 01:39:05;;;;;;;8.45;4.60;;;15.80;99.90;;;;;;1916285;75;21055;-90
2022/10/04 01:42:00;;;;;;;9.20;4.53;;;15.70;99.90;;;;;;1909781;75;21139;-89
2022/10/04 01:44:55;;;;;;;6.28;4.55;;;15.70;99.90;;;;;;1917788;75;21098;-91
2022/10/04 01:47:50;;;;;;;5.85;4.50;;;15.70;99.90;;;;;;1900540;75;21494;-90
2022/10/04 01:50:45;;;;;;;6.12;4.45;;;15.60;99.90;;;;;;1907565;75;21121;-90
2022/10/04 02:00:02;;;;;;;5.65;3.65;;;15.50;99.90;;;;;;1941895;74;22210;-90
2022/10/04 02:08:39;;;;;;;6.00;3.52;;;15.40;99.90;;;;;;1952803;72;22154;-90
2022/10/04 02:11:32;;;;;;;5.17;3.10;;;15.40;99.90;;;;;;1955859;72;21333;-89
2022/10/04 02:14:26;;;;;;;4.97;3.00;;;15.40;99.90;;;;;;1983161;72;21113;-90
2022/10/04 02:17:18;;;;;;;3.95;2.98;;;15.40;99.90;;;;;;1955656;72;21119;-89
2022/10/04 02:20:14;;;;;;;9.63;3.10;;;15.30;99.90;;;;;;1966240;72;21059;-90
2022/10/04 02:23:06;;;;;;;4.40;2.70;;;15.20;99.90;;;;;;1951751;72;21113;-91
2022/10/04 02:25:59;;;;;;;3.58;2.20;;;15.30;99.90;;;;;;1966642;72;21067;-90
2022/10/04 02:28:51;;;;;;;5.53;2.00;;;15.20;99.90;;;;;;1957735;72;21163;-90
2022/10/04 02:34:53;;;;;;;4.60;2.10;;;15.20;99.90;;;;;;1966770;72;21076;-91
2022/10/04 02:37:45;;;;;;;5.87;2.08;;;15.10;99.90;;;;;;1952683;72;21105;-90
2022/10/04 02:40:41;;;;;;;2.98;1.77;;;15.00;99.90;;;;;;1954989;72;21043;-90
2022/10/04 02:43:35;;;;;;;4.17;1.95;;;15.00;99.90;;;;;;1952773;73;21186;-90
2022/10/04 03:02:39;;;;;;;3.00;1.45;;;14.90;99.90;;;;;;1954650;72;22268;-90
2022/10/04 03:05:31;;;;;;;6.10;1.50;;;14.80;99.90;;;;;;1906669;75;21051;-89
2022/10/04 03:08:23;;;;;;;3.98;1.72;;;14.80;99.90;;;;;;1926148;74;21107;-90
2022/10/04 03:14:12;;;;;;;3.10;1.52;;;14.90;99.90;;;;;;1974983;72;22198;-89
2022/10/04 03:17:07;;;;;;;2.77;1.32;;;14.90;99.90;;;;;;1951854;73;21165;-90
2022/10/04 03:19:59;;;;;;;3.12;1.60;;;14.90;99.90;;;;;;1958701;72;21103;-90
2022/10/04 03:22:54;;;;;;;2.17;1.50;;;14.90;99.90;;;;;;1951445;73;21146;-90
2022/10/04 03:25:50;;;;;;;2.75;1.67;;;15.00;99.90;;;;;;1951789;73;21564;-90
2022/10/04 03:28:44;;;;;;;4.12;1.50;;;15.00;99.90;;;;;;1951560;72;21148;-90
2022/10/04 03:31:39;;;;;;;2.55;1.75;;;15.00;99.90;;;;;;1951336;73;21205;-92
2022/10/04 03:34:34;;;;;;;4.12;1.72;;;15.00;99.90;;;;;;1951395;73;21067;-91
2022/10/04 03:37:29;;;;;;;3.50;1.62;;;15.00;99.90;;;;;;1951541;73;21051;-90
2022/10/04 03:40:24;;;;;;;3.92;1.30;;;15.00;99.90;;;;;;1951650;73;21090;-90
2022/10/04 03:43:16;;;;;;;2.85;1.30;;;15.10;99.90;;;;;;1951607;72;21136;-92
2022/10/04 03:48:51;;;;;;;2.10;1.30;;;15.00;99.90;;;;;;1936886;72;22141;-91
2022/10/04 03:54:35;;;;;;;5.95;1.47;;;15.00;99.90;;;;;;1957530;72;22074;-90
2022/10/04 03:57:26;;;;;;;1.85;1.25;;;14.90;99.90;;;;;;1926119;73;21098;-90
2022/10/04 04:03:13;;;;;;;3.62;1.37;;;14.90;99.90;;;;;;1942581;72;22596;-90
2022/10/04 04:06:08;;;;;;;4.53;1.40;;;14.90;99.90;;;;;;1889565;75;21063;-90
2022/10/04 04:09:05;;;;;;;2.35;1.30;;;14.80;99.90;;;;;;1873235;76;21224;-89
2022/10/04 04:11:59;;;;;;;6.67;1.53;;;14.70;99.90;;;;;;1886037;75;21117;-90
2022/10/04 04:14:53;;;;;;;2.00;1.10;;;14.70;99.90;;;;;;1898175;75;21142;-89
2022/10/04 04:17:46;;;;;;;1.92;1.30;;;14.70;99.90;;;;;;1887853;75;21051;-90
2022/10/04 04:20:41;;;;;;;3.52;1.40;;;14.60;99.90;;;;;;1905000;75;21067;-88
2022/10/04 04:23:37;;;;;;;3.85;1.27;;;14.50;99.90;;;;;;1883124;75;21066;-90
2022/10/04 04:26:36;;;;;;;3.33;1.30;;;14.40;99.90;;;;;;1893207;75;21067;-90
2022/10/04 04:29:31;;;;;;;1.17;1.07;;;14.50;99.90;;;;;;1879445;75;21063;-90
2022/10/04 04:35:25;;;;;;;3.20;1.40;;;14.40;99.90;;;;;;1950410;72;22518;-90
2022/10/04 04:38:20;;;;;;;3.92;1.30;;;14.30;99.90;;;;;;1888310;75;21075;-91
2022/10/04 04:41:14;;;;;;;5.75;1.50;;;14.30;99.90;;;;;;1898401;75;21136;-90
2022/10/04 04:46:49;;;;;;;1.98;1.50;;;14.30;99.90;;;;;;1957536;72;22203;-90
2022/10/04 04:49:41;;;;;;;3.65;1.60;;;14.20;99.90;;;;;;1918138;73;21066;-91
2022/10/04 04:52:35;;;;;;;4.40;1.40;;;14.20;99.90;;;;;;1933018;73;21128;-89
2022/10/04 04:58:21;;;;;;;3.35;1.45;;;14.20;99.90;;;;;;1947157;72;22079;-90
2022/10/04 05:04:20;;;;;;;2.55;1.50;;;14.10;99.90;;;;;;1941457;72;22110;-90
2022/10/04 05:07:18;;;;;;;7.50;2.00;;;14.10;99.90;;;;;;1894936;75;21051;-90
2022/10/04 05:10:26;;;;;;;3.80;1.82;;;14.00;99.90;;;;;;1901663;75;21163;-90
2022/10/04 05:13:19;;;;;;;2.12;1.60;;;14.00;99.90;;;;;;1882596;75;21121;-89
2022/10/04 05:16:15;;;;;;;4.35;1.80;;;14.00;99.90;;;;;;1891860;75;21561;-90
2022/10/04 05:19:11;;;;;;;2.60;1.72;;;14.00;99.90;;;;;;1904501;75;21169;-90
2022/10/04 05:22:09;;;;;;;4.58;1.75;;;13.90;99.90;;;;;;1910838;75;21145;-90
2022/10/04 05:25:05;;;;;;;2.70;1.60;;;13.90;99.90;;;;;;1900239;75;21059;-91
2022/10/04 05:28:06;;;;;;;2.65;1.60;;;13.90;99.90;;;;;;1892460;75;21101;-91
2022/10/04 05:31:08;;;;;;;3.08;1.40;;;13.90;99.90;;;;;;1903811;75;21098;-90
2022/10/04 05:34:00;;;;;;;3.17;1.87;;;13.90;99.90;;;;;;1901677;75;21132;-77
2022/10/04 05:37:08;;;;;;;2.00;1.22;;;13.80;99.90;;;;;;1906718;75;21105;-83
2022/10/04 05:42:48;;;;;;;2.40;1.40;;;13.90;99.90;;;;;;1943783;72;22314;-82
2022/10/04 05:48:21;;;;;;;2.60;1.32;;;14.00;99.90;;;;;;1958014;72;22099;-83
2022/10/04 05:54:00;;;;;;;4.78;1.80;;;14.00;99.90;;;;;;1945196;72;22118;-83
2022/10/04 05:57:39;;;;;;;3.80;1.85;;;14.00;99.90;;;;;;1938204;73;21169;-84
2022/10/04 06:03:21;;;;;;;1.87;1.42;;;14.00;99.90;;;;;;1962224;72;22288;-85
2022/10/04 06:06:17;;;;;;;2.98;2.00;;;14.00;99.90;;;;;;1916468;74;21066;-83
2022/10/04 06:09:14;;;;;;;3.05;1.50;;;14.00;99.90;;;;;;1905183;74;21161;-83
2022/10/04 06:12:09;;;;;;;2.00;1.50;;;14.00;99.90;;;;;;1904805;75;21105;-82
2022/10/04 06:15:45;;;;;;;2.87;1.65;;;13.90;99.90;;;;;;1917025;73;21153;-84
2022/10/04 06:18:54;;;;;;;3.15;1.60;;;13.90;99.90;;;;;;1906402;74;21090;-83
2022/10/04 06:21:58;;;;;;;3.95;1.70;;;13.90;99.90;;;;;;1904805;75;21104;-82
2022/10/04 06:24:53;;;;;;;5.58;1.70;;;13.80;99.90;;;;;;1905100;74;21216;-84
2022/10/04 06:33:32;;;;;;;4.75;1.70;;;13.70;99.90;;;;;;1944453;72;22205;-83
2022/10/04 06:40:26;;;;;;;4.30;1.77;;;13.90;99.90;;;;;;1960211;72;22619;-84
2022/10/04 06:43:35;;;;;;;4.85;1.52;;;14.00;99.90;;;;;;1908935;74;21138;-84
2022/10/04 06:49:17;;;;;;;4.87;2.08;;;14.00;99.90;;;;;;1950566;72;22280;-85
2022/10/04 06:55:45;;;;;;;2.67;1.60;;;14.10;99.90;;;;;;1952626;72;22138;-84
2022/10/04 06:59:14;;;;;;;5.37;1.80;;;14.20;99.90;;;;;;1899119;75;21126;-83
2022/10/04 07:02:10;;;;;;;5.72;2.05;;;14.10;99.90;;;;;;1907470;75;21105;-82
2022/10/04 07:05:08;;;;;;;5.45;2.10;;;14.20;99.90;;;;;;1884344;75;21109;-82
2022/10/04 07:10:54;;;;;;;6.58;2.40;;;14.30;99.90;;;;;;1941504;72;22136;-83
2022/10/04 07:13:55;;;;;;;4.50;2.10;;;14.50;99.90;;;;;;1907752;75;21071;-84
2022/10/04 07:16:49;;;;;;;3.90;2.50;;;14.50;99.90;;;;;;1897269;75;21096;-83
2022/10/04 07:19:44;;;;;;;4.85;2.87;;;14.60;99.90;;;;;;1887532;75;21251;-83
2022/10/04 07:22:39;;;;;;;7.00;2.98;;;14.50;99.90;;;;;;1903430;75;21106;-84
2022/10/04 07:31:31;;;;;;;5.00;2.70;;;14.80;99.90;;;;;;1889415;75;21116;-85
2022/10/04 07:34:27;;;;;;;5.30;2.37;;;14.80;99.90;;;;;;1908371;75;21091;-84
2022/10/04 07:37:19;;;;;;;4.62;2.50;;;14.90;99.90;;;;;;1891594;75;21509;-83
2022/10/04 07:42:54;;;;;;;6.28;2.25;;;15.10;99.90;;;;;;1932679;72;22292;-85
2022/10/04 07:45:46;;;;;;;4.50;2.87;;;15.10;99.90;;;;;;1909150;75;21091;-85
2022/10/04 07:48:42;;;;;;;10.28;2.58;;;15.10;99.90;;;;;;1886856;75;21087;-85
2022/10/04 07:51:38;;;;;;;7.80;2.80;;;15.20;99.90;;;;;;1884289;75;21090;-85
2022/10/04 07:57:21;;;;;;;3.58;2.90;;;15.30;99.90;;;;;;1934670;72;22212;-84
2022/10/04 08:03:24;;;;;;;5.80;3.20;;;15.50;99.90;;;;;;1933860;72;22090;-83
2022/10/04 08:09:09;;;;;;;4.65;2.80;;;15.40;99.90;;;;;;1957511;72;22162;-82
2022/10/04 08:12:06;;;;;;;8.58;2.80;;;15.50;99.90;;;;;;1917291;74;21138;-82
2022/10/04 08:17:53;;;;;;;5.03;3.40;;;15.60;99.90;;;;;;1950857;72;20140;-84
2022/10/04 08:23:46;;;;;;;9.70;3.22;;;15.80;99.90;;;;;;1917377;72;22220;-83
2022/10/04 08:26:51;;;;;;;5.80;2.87;;;15.90;99.90;;;;;;1908349;75;21034;-84
2022/10/04 08:30:11;;;;;;;7.47;3.20;;;15.90;99.90;;;;;;1902450;75;21531;-84
2022/10/04 08:33:08;;;;;;;7.42;3.12;;;16.00;99.90;;;;;;1913128;75;21055;-83
2022/10/04 08:38:46;;;;;;;4.53;2.80;;;16.20;99.90;;;;;;1930171;72;22150;-82
2022/10/04 08:42:02;;;;;;;6.78;3.02;;;16.20;99.90;;;;;;1912111;75;21510;-83
2022/10/04 08:45:21;;;;;;;4.78;2.65;;;16.30;99.90;;;;;;1917470;75;21179;-83
2022/10/04 08:48:45;;;;;;;2.83;2.05;;;16.40;99.90;;;;;;1894494;75;21237;-83
2022/10/04 08:52:18;;;;;;;5.72;2.20;;;16.50;99.90;;;;;;1884598;76;21116;-83
2022/10/04 08:58:55;;;;;;;5.12;2.05;;;16.60;99.90;;;;;;1974410;72;22641;-82
2022/10/04 09:02:13;;;;;;;4.85;2.10;;;16.70;99.90;;;;;;1917827;75;21136;-84
2022/10/04 09:05:31;;;;;;;3.20;2.22;;;16.70;99.90;;;;;;1917696;75;21059;-83
2022/10/04 09:08:39;;;;;;;;;;;16.90;99.90;;;;;;1924872;73;21060;-83
2022/10/04 09:11:58;;;;;;;2.25;1.27;;;16.90;99.90;;;;;;1926376;73;20542;-83
2022/10/04 09:15:14;;;;;;;2.47;1.87;;;16.90;99.90;;;;;;1917541;75;21195;-83
2022/10/04 09:18:27;;;;;;;6.58;2.20;;;17.00;99.90;;;;;;1917533;75;21123;-83
2022/10/04 09:21:31;;;;;;;3.35;2.20;;;17.10;99.90;;;;;;1917479;75;21592;-84
2022/10/04 09:24:44;;;;;;;3.72;2.00;;;17.10;99.90;;;;;;1917439;75;21052;-83
2022/10/04 09:27:48;;;;;;;5.87;1.90;;;17.20;99.90;;;;;;1940892;73;21117;-83
2022/10/04 09:31:01;;;;;;;4.42;2.20;;;17.40;99.90;;;;;;1917714;75;21078;-83
2022/10/04 09:34:06;;;;;;;5.45;2.05;;;17.50;99.90;;;;;;1917383;75;21035;-83
2022/10/04 09:37:31;;;;;;;4.08;2.55;;;17.50;99.90;;;;;;1936413;73;21051;-84
2022/10/04 09:41:02;;;;;;;6.08;2.15;;;17.60;99.90;;;;;;1933552;73;21067;-83
2022/10/04 09:44:24;;;;;;;3.52;2.00;;;17.70;99.90;;;;;;1927940;73;21127;-83
2022/10/04 09:47:37;;;;;;;4.17;1.90;;;17.80;99.90;;;;;;1924371;73;21160;-83
2022/10/04 09:50:50;;;;;;;2.87;2.08;;;17.90;99.90;;;;;;1917601;75;21083;-83
2022/10/04 09:57:13;;;;;;;5.03;1.82;;;18.00;99.90;;;;;;1952573;72;22343;-82
2022/10/04 10:00:21;;;;;;;4.37;1.92;;;18.10;99.90;;;;;;1927009;73;21071;-83
2022/10/04 10:03:40;;;;;;;4.83;2.15;;;18.10;99.90;;;;;;1939584;73;21058;-83
2022/10/04 10:06:54;;;;;;;4.58;1.80;;;18.20;99.90;;;;;;1950175;73;21051;-83
2022/10/04 10:16:40;;;;;;;3.77;1.70;;;18.40;99.90;;;;;;1917608;75;21630;-83
2022/10/04 10:19:59;;;;;;;9.40;2.87;;;18.40;99.90;;;;;;1917794;75;21114;-83
2022/10/04 10:23:26;;;;;;;5.53;2.47;;;18.50;99.90;;;;;;1917619;75;21125;-83
2022/10/04 10:27:03;;;;;;;3.80;1.80;;;18.60;99.90;;;;;;1888561;75;21118;-83
2022/10/04 10:30:20;;;;;;;7.42;2.30;;;18.60;99.90;;;;;;1928431;73;21114;-84
2022/10/04 10:33:31;;;;;;;6.37;2.20;;;18.60;99.90;;;;;;1917693;75;21059;-83
2022/10/04 10:37:01;;;;;;;4.47;1.72;;;18.80;99.90;;;;;;1917432;75;21204;-83
2022/10/04 10:40:18;;;;;;;3.40;2.20;;;18.80;99.90;;;;;;1917805;75;21054;-83
2022/10/04 10:43:48;;;;;;;3.77;1.70;;;18.80;99.90;;;;;;1917979;75;21515;-83
2022/10/04 10:46:48;;;;;;;3.75;1.62;;;19.00;99.90;;;;;;1917761;75;21507;-83
2022/10/04 10:49:49;;;;;;;4.97;1.50;;;19.10;99.90;;;;;;1917538;75;21478;-83
2022/10/04 10:53:03;;;;;;;3.75;1.22;;;19.10;99.90;;;;;;1928291;73;21051;-83
2022/10/04 10:56:30;;;;;;;3.95;1.40;;;19.10;99.90;;;;;;1915109;73;21188;-83
2022/10/04 11:00:04;;;;;;;2.27;1.32;;;19.10;99.90;;;;;;1931742;73;21516;-82
2022/10/04 11:03:19;;;;;;;4.20;1.52;;;19.10;99.90;;;;;;1920535;74;21183;-84
2022/10/04 11:09:54;;;;;;;5.42;2.02;;;19.50;99.90;;;;;;1937997;72;22151;-82
2022/10/04 11:13:07;;;;;;;2.52;1.62;;;19.60;99.90;;;;;;1903468;75;21114;-81
2022/10/04 11:19:45;;;;;;;1.87;1.25;;;19.60;99.90;;;;;;1954959;72;22150;-82
2022/10/04 11:23:27;;;;;;;3.92;1.70;;;19.70;99.90;;;;;;1880223;74;21048;-82
2022/10/04 11:26:46;;;;;;;2.98;1.22;;;19.70;99.90;;;;;;1772350;80;21216;-84
2022/10/04 11:29:50;;;;;;;2.65;1.57;;;19.70;99.90;;;;;;1904165;75;21090;-83
2022/10/04 11:33:17;;;;;;;1.95;1.52;;;19.80;99.90;;;;;;1886642;75;21148;-83
2022/10/04 11:36:32;;;;;;;2.83;1.10;;;19.80;99.90;;;;;;1888391;75;21126;-83
2022/10/04 11:40:07;;;;;;;2.35;1.45;;;19.90;99.90;;;;;;1891496;75;21047;-82
2022/10/04 11:49:03;;;;;;;3.02;1.20;;;20.20;99.90;;;;;;1949479;72;22063;-84
2022/10/04 11:52:44;;;;;;;1.80;1.40;;;20.30;99.90;;;;;;1885187;75;21113;-83
2022/10/04 11:55:56;;;;;;;2.87;1.80;;;20.40;99.90;;;;;;1895787;74;21145;-82
2022/10/04 11:59:09;;;;;;;2.17;1.40;;;20.50;99.90;;;;;;1895305;75;21082;-83
2022/10/04 12:02:52;;;;;;;3.77;1.45;;;20.60;99.90;;;;;;1895306;75;21106;-83
2022/10/04 12:06:12;;;;;;;4.03;1.45;;;20.60;99.90;;;;;;1896458;75;21106;-82
2022/10/04 12:09:08;;;;;;;4.00;1.60;;;20.60;99.90;;;;;;1897559;75;21075;-82
2022/10/04 12:12:38;;;;;;;2.75;1.50;;;20.70;99.90;;;;;;1886710;75;21745;-83
2022/10/04 12:15:39;;;;;;;2.20;1.20;;;20.80;99.90;;;;;;1896931;75;21669;-82
2022/10/04 12:19:06;;;;;;;3.52;1.20;;;20.90;99.90;;;;;;1885974;75;21155;-83
2022/10/04 12:22:16;;;;;;;2.15;1.40;;;20.90;99.90;;;;;;1884780;75;21050;-82
2022/10/04 12:25:31;;;;;;;3.55;1.60;;;21.00;99.90;;;;;;1884791;76;21125;-82
2022/10/04 12:28:53;;;;;;;4.33;1.55;;;21.00;99.90;;;;;;1896339;75;21498;-82
2022/10/04 12:31:49;;;;;;;1.80;1.17;;;21.10;99.90;;;;;;1884858;75;21519;-83
2022/10/04 12:34:44;;;;;;;1.72;1.10;;;21.20;99.90;;;;;;1894589;75;21142;-83
2022/10/04 12:37:39;;;;;;;3.92;1.42;;;21.20;99.90;;;;;;1895441;75;21047;-83
2022/10/04 12:40:33;;;;;;;2.25;1.40;;;21.30;99.90;;;;;;1916600;75;21498;-82
2022/10/04 12:43:29;;;;;;;3.50;1.32;;;21.30;99.90;;;;;;1903161;75;21562;-82
2022/10/04 12:46:29;;;;;;;2.00;1.30;;;21.40;99.90;;;;;;1899071;75;21108;-83
2022/10/04 12:49:28;;;;;;;3.35;1.50;;;21.50;99.90;;;;;;1885081;75;21157;-83
2022/10/04 12:52:23;;;;;;;4.30;1.15;;;21.60;99.90;;;;;;1898358;75;21139;-83
2022/10/04 12:55:20;;;;;;;1.77;1.42;;;21.60;99.90;;;;;;1897171;75;21180;-83
2022/10/04 12:58:16;;;;;;;3.35;1.30;;;21.60;99.90;;;;;;1884639;75;21139;-83
2022/10/04 13:04:06;;;;;;;5.97;1.60;;;21.80;99.90;;;;;;1943936;72;22268;-82
2022/10/04 13:07:05;;;;;;;2.30;1.10;;;21.90;99.90;;;;;;1914464;75;21101;-83
2022/10/04 13:10:05;;;;;;;2.80;1.20;;;21.90;99.90;;;;;;1913704;75;21055;-83
2022/10/04 13:13:22;;;;;;;2.65;1.40;;;22.00;99.90;;;;;;1884853;75;21244;-83
2022/10/04 13:16:19;;;;;;;2.40;1.35;;;22.00;99.90;;;;;;1884747;75;21073;-83
2022/10/04 13:19:16;;;;;;;1.67;1.20;;;22.00;99.90;;;;;;1904019;75;21184;-82
2022/10/04 13:25:07;;;;;;;2.62;1.27;;;22.00;99.90;;;;;;1951931;72;22126;-82
2022/10/04 13:28:10;;;;;;;4.92;1.45;;;22.10;99.90;;;;;;1909721;74;21099;-82
2022/10/04 13:31:04;;;;;;;4.37;1.30;;;22.20;99.90;;;;;;1884794;75;21062;-83
2022/10/04 13:34:00;;;;;;;2.02;1.10;;;22.30;99.90;;;;;;1906568;75;21168;-82
2022/10/04 13:36:59;;;;;;;4.35;1.30;;;22.40;99.90;;;;;;1902371;75;21071;-83
2022/10/04 13:40:06;;;;;;;2.02;1.12;;;22.40;99.90;;;;;;1907267;74;21125;-82
2022/10/04 13:46:01;;;;;;;2.00;1.40;;;22.50;99.90;;;;;;1947243;72;22238;-83
2022/10/04 13:49:05;;;;;;;3.05;1.42;;;22.60;99.90;;;;;;1906719;75;21251;-84
2022/10/04 13:58:44;;;;;;;3.77;1.10;;;22.80;99.90;;;;;;1891030;75;21162;-83
2022/10/04 14:01:56;;;;;;;4.17;1.20;;;22.70;99.90;;;;;;1907401;75;21086;-83
2022/10/04 14:08:35;;;;;;;3.05;1.10;;;23.00;99.90;;;;;;1952594;72;22216;-83
2022/10/04 14:15:23;;;;;;;5.15;1.30;;;24.50;99.90;;;;;;1944746;72;22088;-82
2022/10/04 14:18:44;;;;;;;5.53;1.30;;;26.50;99.90;;;;;;1879158;75;21139;-82
2022/10/04 14:22:06;;;;;;;3.12;1.40;;;28.50;99.90;;;;;;1884138;75;21384;-83
2022/10/04 14:25:50;;;;;;;3.25;1.20;;;29.40;99.90;;;;;;1884251;75;21097;-83
2022/10/04 14:29:17;;;;;;;2.27;1.17;;;29.50;99.90;;;;;;1777803;80;21153;-83
2022/10/04 14:32:44;;;;;;;3.25;1.82;;;29.80;99.90;;;;;;1864028;76;21062;-83
2022/10/04 14:35:39;;;;;;;2.80;1.20;;;30.70;99.90;;;;;;1857233;76;21134;-83
2022/10/04 14:39:00;;;;;;;2.75;1.12;;;30.60;99.10;;;;;;1873126;76;21102;-83
2022/10/04 14:42:34;;;;;;;4.87;1.45;;;28.90;99.30;;;;;;1892210;75;21190;-83
2022/10/04 14:45:42;;;;;;;3.27;1.45;;;27.00;99.90;;;;;;1875652;75;21149;-82
2022/10/04 14:48:50;;;;;;;2.42;1.40;;;25.90;99.90;;;;;;1905371;75;21165;-83
2022/10/04 14:54:39;;;;;;;3.33;1.40;;;25.10;99.90;;;;;;1955527;72;22654;-82
2022/10/04 14:57:49;;;;;;;2.15;1.10;;;24.80;99.90;;;;;;1904385;75;21066;-82
2022/10/04 15:01:07;;;;;;;2.17;1.10;;;24.80;99.90;;;;;;1906777;75;21054;-82
2022/10/04 15:04:24;;;;;;;1.82;1.02;;;25.70;99.90;;;;;;1895781;75;21071;-82
2022/10/04 15:07:21;;;;;;;2.35;1.50;;;26.50;99.90;;;;;;1896423;75;21179;-82
2022/10/04 15:10:17;;;;;;;3.20;1.20;;;27.50;99.90;;;;;;1895583;75;21139;-82
2022/10/04 15:13:13;;;;;;;2.75;1.20;;;28.40;99.90;;;;;;1895564;75;21086;-83
2022/10/04 15:16:19;;;;;;;6.15;1.20;;;29.00;99.90;;;;;;1895596;75;21110;-83
2022/10/04 15:19:15;;;;;;;3.33;1.35;;;29.60;98.70;;;;;;1904320;75;21160;-82
2022/10/04 15:22:14;;;;;;;2.92;1.00;;;29.80;98.20;;;;;;1901882;75;21084;-83
2022/10/04 15:25:34;;;;;;;3.27;1.47;;;30.60;96.60;;;;;;1896240;75;21140;-83
2022/10/04 15:28:36;;;;;;;3.67;1.07;;;30.60;95.60;;;;;;1897139;75;21142;-83
2022/10/04 15:31:33;;;;;;;4.58;1.45;;;30.60;95.00;;;;;;1894036;75;21480;-83
2022/10/04 15:34:32;;;;;;;1.65;1.00;;;30.70;94.40;;;;;;1889797;75;21186;-82
2022/10/04 15:37:28;;;;;;;8.30;1.60;;;30.50;94.70;;;;;;1895419;75;21241;-82
2022/10/04 15:40:30;;;;;;;6.67;1.72;;;30.40;95.00;;;;;;1897965;75;21185;-82
2022/10/04 15:43:27;;;;;;;5.92;1.70;;;30.20;95.50;;;;;;1884750;76;21212;-83
2022/10/04 15:46:39;;;;;;;5.42;2.12;;;30.80;95.40;;;;;;1897402;75;21514;-82
2022/10/04 15:49:38;;;;;;;4.67;1.70;;;31.40;94.50;;;;;;1917520;75;21155;-83
2022/10/04 15:52:54;;;;;;;2.25;1.40;;;31.10;94.40;;;;;;1886006;75;21118;-83
2022/10/04 15:56:07;;;;;;;4.08;1.90;;;30.90;94.00;;;;;;1906884;75;21064;-83
2022/10/04 15:59:23;;;;;;;3.45;1.35;;;30.30;94.00;;;;;;1893901;75;21580;-83
2022/10/04 16:02:58;;;;;;;3.43;1.63;;;29.30;94.80;;;;;;1895732;75;21192;-83
2022/10/04 16:05:55;;;;;;;4.78;1.30;;;28.90;95.20;;;;;;1898561;75;21804;-83
2022/10/04 16:12:06;;;;;;;5.55;1.98;;;28.40;96.00;;;;;;1953362;72;22665;-82
2022/10/04 16:15:03;;;;;;;2.75;1.22;;;27.90;96.80;;;;;;1930888;74;21162;-84
2022/10/04 16:18:04;;;;;;;1.92;1.00;;;26.90;97.70;;;;;;1930297;74;21574;-82
2022/10/04 16:21:06;;;;;;;3.83;1.12;;;26.00;98.70;;;;;;1923641;74;21047;-82
2022/10/04 16:24:34;;;;;;;2.72;1.25;;;25.20;99.90;;;;;;1914369;74;21544;-83
2022/10/04 16:30:51;;;;;;;2.08;1.22;;;24.10;99.90;;;;;;1975842;72;22118;-82
2022/10/04 16:33:45;;;;;;;3.98;1.32;;;23.60;99.90;;;;;;1917670;75;21116;-83
2022/10/04 16:36:48;;;;;;;3.47;1.25;;;23.40;99.90;;;;;;1917660;75;21170;-82
2022/10/04 16:40:02;;;;;;;3.60;1.30;;;23.20;99.90;;;;;;1917397;75;21171;-82
2022/10/04 16:42:58;;;;;;;3.72;1.50;;;23.00;99.90;;;;;;1917777;75;21116;-83
2022/10/04 16:46:05;;;;;;;7.42;1.55;;;22.70;99.90;;;;;;1940034;73;21101;-83
2022/10/04 16:49:00;;;;;;;7.20;2.10;;;22.40;99.90;;;;;;1917480;75;21204;-82
2022/10/04 16:52:26;;;;;;;12.15;1.80;;;22.10;99.90;;;;;;1917369;75;21109;-83
2022/10/04 16:55:37;;;;;;;3.08;1.25;;;21.90;99.90;;;;;;1940182;73;21066;-82
2022/10/04 16:58:52;;;;;;;4.80;1.40;;;21.70;99.90;;;;;;1940177;73;21087;-82
2022/10/04 17:02:09;;;;;;;4.30;1.80;;;21.60;99.90;;;;;;1917745;75;21129;-82
2022/10/04 17:05:26;;;;;;;8.88;1.67;;;21.30;99.90;;;;;;1917370;73;21599;-83
2022/10/04 17:08:26;;;;;;;6.62;1.60;;;21.10;99.90;;;;;;1940268;73;21051;-83
2022/10/04 17:11:44;;;;;;;3.95;1.60;;;20.90;99.90;;;;;;1917329;75;21619;-83
2022/10/04 17:17:45;;;;;;;5.72;1.80;;;20.60;99.90;;;;;;1976062;72;22143;-82
2022/10/04 17:20:47;;;;;;;4.20;1.90;;;20.50;99.90;;;;;;1933843;73;21164;-83
2022/10/04 17:23:52;;;;;;;7.08;2.00;;;20.40;99.90;;;;;;1917571;75;21121;-82
2022/10/04 17:26:54;;;;;;;5.22;1.72;;;20.30;99.90;;;;;;1917729;75;21117;-83
2022/10/04 17:29:53;;;;;;;2.70;1.70;;;20.20;99.90;;;;;;1917742;75;21063;-83
2022/10/04 17:33:07;;;;;;;5.00;1.67;;;20.20;99.90;;;;;;1917380;75;21080;-81
2022/10/04 17:39:30;;;;;;;5.75;2.27;;;20.00;99.90;;;;;;1969869;72;22142;-83
2022/10/04 17:42:32;;;;;;;5.45;2.77;;;19.80;99.90;;;;;;1923668;73;21055;-82
2022/10/04 17:45:47;;;;;;;6.50;2.50;;;19.80;99.90;;;;;;1917457;75;21039;-82
2022/10/04 17:55:17;;;;;;;3.67;1.80;;;19.50;99.90;;;;;;1917589;75;21090;-83
2022/10/04 17:58:14;;;;;;;4.95;2.33;;;19.50;99.90;;;;;;1917525;75;21088;-83
2022/10/04 18:01:09;;;;;;;2.75;2.20;;;19.40;99.90;;;;;;1927960;74;21063;-84
2022/10/04 18:04:08;;;;;;;3.80;2.33;;;19.40;99.90;;;;;;1939844;73;21141;-83
2022/10/04 18:07:04;;;;;;;3.17;2.33;;;19.30;99.90;;;;;;1925353;73;21051;-82
2022/10/04 18:09:57;;;;;;;6.33;2.40;;;19.30;99.90;;;;;;1925369;73;21137;-82
2022/10/04 18:12:52;;;;;;;4.33;2.72;;;19.20;99.90;;;;;;1938818;73;21050;-83
2022/10/04 18:15:47;;;;;;;4.72;2.60;;;19.10;99.90;;;;;;1933742;73;21124;-83
2022/10/04 18:18:44;;;;;;;4.95;2.25;;;19.00;99.90;;;;;;1917805;75;21477;-84
2022/10/04 18:21:40;;;;;;;6.15;2.12;;;19.00;99.90;;;;;;1917767;75;21145;-83
2022/10/04 18:24:32;;;;;;;2.67;2.08;;;18.90;99.90;;;;;;1917606;73;21491;-83
2022/10/04 18:27:25;;;;;;;4.85;2.10;;;18.90;99.90;;;;;;1861076;76;21590;-83
2022/10/04 18:33:13;;;;;;;4.33;1.85;;;18.70;99.90;;;;;;1941747;72;22078;-82
2022/10/04 18:36:11;;;;;;;3.50;2.05;;;18.70;99.90;;;;;;1922068;74;21203;-82
2022/10/04 18:42:18;;;;;;;3.08;1.90;;;18.70;99.90;;;;;;1975540;72;22134;-83
2022/10/04 18:45:20;;;;;;;4.67;2.10;;;18.60;99.90;;;;;;1917821;75;21170;-82
2022/10/04 18:48:18;;;;;;;4.78;2.90;;;18.60;99.90;;;;;;1917648;75;21151;-82
2022/10/04 18:51:27;;;;;;;5.45;2.62;;;18.50;99.90;;;;;;1917755;75;21138;-82
2022/10/04 18:54:23;;;;;;;6.42;2.80;;;18.50;99.90;;;;;;1917756;75;21074;-82
2022/10/04 18:57:22;;;;;;;9.00;3.37;;;18.40;99.90;;;;;;1917819;75;21125;-82
2022/10/04 19:03:28;;;;;;;6.17;3.60;;;18.40;99.90;;;;;;1917082;75;21160;-83
2022/10/04 19:06:23;;;;;;;6.37;3.58;;;18.40;99.90;;;;;;1917708;75;21164;-82
2022/10/04 19:09:17;;;;;;;8.53;4.35;;;18.30;99.90;;;;;;1917807;75;21635;-82
2022/10/04 19:12:11;;;;;;;6.75;4.10;;;18.30;99.90;;;;;;1917444;75;21047;-83
2022/10/04 19:15:10;;;;;;;7.33;3.70;;;18.20;99.90;;;;;;1917751;75;21123;-84
2022/10/04 19:20:49;;;;;;;7.15;3.70;;;18.20;99.90;;;;;;2018285;69;27851;-82
2022/10/04 19:23:44;;;;;;;5.85;3.17;;;18.40;99.90;;;;;;1986449;72;21035;-82
2022/10/04 19:26:39;;;;;;;5.60;3.45;;;18.40;99.90;;;;;;1977361;72;21074;-82
2022/10/04 19:29:38;;;;;;;8.58;4.85;;;18.30;99.90;;;;;;1981535;72;21047;-82
2022/10/04 19:32:35;;;;;;;5.08;3.20;;;18.20;99.90;;;;;;1964105;72;21090;-82
2022/10/04 19:35:41;;;;;;;8.65;3.05;;;18.10;99.90;;;;;;1966581;72;21046;-82
2022/10/04 19:38:40;;;;;;;6.72;3.10;;;18.00;99.90;;;;;;1971137;72;21153;-82
2022/10/04 19:41:43;;;;;;;6.53;3.15;;;17.90;99.90;;;;;;1967608;72;21087;-82
2022/10/04 19:44:44;;;;;;;8.10;3.08;;;17.90;99.90;;;;;;1964929;72;21097;-84
2022/10/04 19:47:47;;;;;;;5.25;3.15;;;17.80;99.90;;;;;;1954555;72;21144;-83